createdAt,value
2023-04-27T05:40:28.031Z,51.0860
2023-04-27T05:41:29.756Z,53.1357
2023-04-27T05:46:22.809Z,51.4016
2023-04-27T05:47:24.546Z,50.0762
2023-04-27T05:48:26.559Z,46.2060
2023-04-27T05:49:27.933Z,42.9949
2023-04-27T05:50:29.678Z,43.0800
2023-04-27T05:51:42.442Z,47.3506
2023-04-27T05:52:33.103Z,52.9603
2023-04-27T05:53:34.826Z,57.6659
2023-04-27T05:54:36.647Z,62.1594
2023-04-27T05:55:38.321Z,62.4226
2023-04-27T05:56:40.028Z,62.1924
2023-04-27T05:57:41.758Z,64.9014
2023-04-27T05:58:43.523Z,67.9097
2023-04-27T05:59:45.195Z,70.1563
2023-04-27T06:00:47.531Z,70.9710
2023-04-27T06:01:51.441Z,65.7546
2023-04-27T06:02:55.388Z,59.1887
2023-04-27T06:03:59.386Z,59.4714
2023-04-27T06:05:03.328Z,62.7886
2023-04-27T06:06:07.221Z,66.6111
2023-04-27T06:07:11.152Z,69.4842
2023-04-27T06:08:15.055Z,67.8333
2023-04-27T06:09:18.961Z,61.0456
2023-04-27T06:10:22.868Z,59.9136
2023-04-27T06:11:26.808Z,62.8059
2023-04-27T06:12:30.700Z,66.4950
2023-04-27T06:13:34.624Z,69.2471
2023-04-27T06:14:38.515Z,68.8463
2023-04-27T06:15:42.459Z,62.8045
2023-04-27T06:16:46.658Z,61.4620
2023-04-27T06:17:50.610Z,64.3644
2023-04-27T06:18:54.510Z,67.7498
2023-04-27T06:19:58.396Z,69.6971
2023-04-27T06:21:02.356Z,68.9681
2023-04-27T06:22:06.250Z,62.7665
2023-04-27T06:23:10.133Z,60.7007
2023-04-27T06:24:14.027Z,63.3733
2023-04-27T06:25:17.917Z,66.7824
2023-04-27T06:26:21.946Z,68.9657
2023-04-27T06:27:25.830Z,68.6712
2023-04-27T06:28:29.708Z,62.6364
2023-04-27T06:29:33.570Z,57.9325
2023-04-27T06:30:39.416Z,59.6823
2023-04-27T06:31:38.242Z,63.2833
2023-04-27T06:32:42.182Z,66.6679
2023-04-27T06:33:46.049Z,68.4832
2023-04-27T06:34:49.942Z,65.4333
2023-04-27T06:35:53.866Z,60.0525
2023-04-27T06:36:57.783Z,60.7744
2023-04-27T06:38:01.702Z,64.0743
2023-04-27T06:39:05.841Z,67.1981
2023-04-27T06:40:09.743Z,68.4058
2023-04-27T06:41:13.651Z,65.9645
2023-04-27T06:42:17.581Z,59.3182
2023-04-27T06:43:21.495Z,57.9941
2023-04-27T06:44:25.409Z,61.0101
2023-04-27T06:45:29.324Z,64.6521
2023-04-27T06:46:33.320Z,67.1946
2023-04-27T06:47:37.250Z,67.0369
2023-04-27T06:48:41.160Z,61.0902
2023-04-27T06:49:45.397Z,57.3494
2023-04-27T06:50:49.295Z,59.5979
2023-04-27T06:51:53.204Z,63.2769
2023-04-27T06:52:57.119Z,66.4519
2023-04-27T06:54:01.013Z,67.4786
2023-04-27T06:55:05.017Z,63.7161
2023-04-27T06:56:08.873Z,60.3856
2023-04-27T06:57:12.813Z,62.5014
2023-04-27T06:58:16.711Z,65.7031
2023-04-27T06:59:20.679Z,67.4072
2023-04-27T07:00:24.588Z,67.3894
2023-04-27T07:01:28.586Z,63.2959
2023-04-27T07:02:32.571Z,58.0842
2023-04-27T07:03:36.763Z,59.2930
2023-04-27T07:04:40.831Z,62.9307
2023-04-27T07:05:44.698Z,65.9828
2023-04-27T07:06:48.597Z,67.0902
2023-04-27T07:07:52.511Z,64.8685
2023-04-27T07:08:56.502Z,59.9534
2023-04-27T07:10:00.422Z,60.7380
2023-04-27T07:11:04.326Z,63.9601
2023-04-27T07:12:08.225Z,66.2485
2023-04-27T07:13:12.651Z,66.7216
2023-04-27T07:14:12.487Z,64.7401
2023-04-27T07:15:16.614Z,58.5149
2023-04-27T07:16:20.512Z,56.5441
2023-04-27T07:17:24.382Z,59.6396
2023-04-27T07:18:28.292Z,63.3186
2023-04-27T07:19:32.419Z,65.7838
2023-04-27T07:20:36.423Z,66.0000
2023-04-27T07:21:40.365Z,61.2804
2023-04-27T07:22:44.269Z,57.8733
2023-04-27T07:23:48.180Z,60.0805
2023-04-27T07:24:52.094Z,63.5269
2023-04-27T07:25:56.100Z,65.6827
2023-04-27T07:27:00.187Z,65.9559
2023-04-27T07:28:04.071Z,62.2130
2023-04-27T07:29:19.062Z,56.6212
2023-04-27T07:30:12.485Z,57.4328
2023-04-27T07:31:16.477Z,60.8702
2023-04-27T07:32:20.382Z,64.1998
2023-04-27T07:33:24.275Z,65.6437
2023-04-27T07:34:35.010Z,64.2474
2023-04-27T07:35:32.693Z,58.0962
2023-04-27T07:36:36.601Z,57.0780
2023-04-27T07:37:40.500Z,60.2837
2023-04-27T07:38:44.438Z,63.7375
2023-04-27T07:39:48.343Z,65.4708
2023-04-27T07:40:52.249Z,65.0843
2023-04-27T07:41:56.176Z,60.1030
2023-04-27T07:43:00.128Z,57.8986
2023-04-27T07:44:04.018Z,60.6368
2023-04-27T07:45:07.889Z,63.8691
2023-04-27T07:46:11.857Z,65.3959
2023-04-27T07:47:15.805Z,65.3034
2023-04-27T07:48:19.734Z,61.0424
2023-04-27T07:49:23.597Z,57.1438
2023-04-27T07:50:27.492Z,59.1923
2023-04-27T07:51:31.374Z,62.7034
2023-04-27T07:52:35.267Z,64.9039
2023-04-27T07:53:39.177Z,65.2779
2023-04-27T07:54:43.084Z,62.3414
2023-04-27T07:55:46.999Z,57.2509
2023-04-27T07:56:50.925Z,58.2640
2023-04-27T07:57:54.835Z,61.7894
2023-04-27T07:58:58.733Z,64.4699
2023-04-27T08:00:02.655Z,65.1845
2023-04-27T08:01:06.542Z,63.5335
2023-04-27T08:02:19.797Z,58.2663
2023-04-27T08:03:15.399Z,58.3298
2023-04-27T08:04:19.697Z,61.5259
2023-04-27T08:05:24.234Z,64.2288
2023-04-27T08:06:29.172Z,64.9634
2023-04-27T08:07:35.910Z,63.7666
2023-04-27T08:08:36.809Z,58.6343
2023-04-27T08:09:40.685Z,58.4246
2023-04-27T08:10:44.564Z,61.6665
2023-04-27T08:11:48.463Z,64.2520
2023-04-27T08:12:52.334Z,64.8918
2023-04-27T08:13:56.245Z,64.0783
2023-04-27T08:15:00.195Z,59.3561
2023-04-27T08:16:04.033Z,58.5145
2023-04-27T08:17:07.907Z,61.5154
2023-04-27T08:18:11.861Z,64.0263
2023-04-27T08:19:16.117Z,64.6580
2023-04-27T08:20:20.199Z,64.0246
2023-04-27T08:21:24.103Z,59.2082
2023-04-27T08:22:28.020Z,56.6355
2023-04-27T08:23:31.915Z,59.3395
2023-04-27T08:24:35.932Z,62.6891
2023-04-27T08:25:39.834Z,64.2532
2023-04-27T08:26:44.052Z,64.2478
2023-04-27T08:27:47.929Z,60.6077
2023-04-27T08:28:51.821Z,56.6390
2023-04-27T08:29:55.706Z,58.5581
2023-04-27T08:30:59.625Z,62.0172
2023-04-27T08:32:03.515Z,63.9558
2023-04-27T08:33:07.441Z,64.2184
2023-04-27T08:34:11.597Z,61.7129
2023-04-27T08:35:15.480Z,56.4879
2023-04-27T08:36:19.373Z,57.0325
2023-04-27T08:37:23.294Z,60.4787
2023-04-27T08:38:27.161Z,63.2369
2023-04-27T08:39:31.070Z,64.0003
2023-04-27T08:40:34.980Z,62.8652
2023-04-27T08:41:38.876Z,57.4202
2023-04-27T08:42:42.775Z,55.5635
2023-04-27T08:43:46.664Z,58.6056
2023-04-27T08:44:50.557Z,62.1009
2023-04-27T08:45:54.487Z,63.7422
2023-04-27T08:46:58.364Z,63.7068
2023-04-27T08:48:02.308Z,59.9097
2023-04-27T08:49:06.226Z,58.1024
2023-04-27T08:50:10.125Z,60.8786
2023-04-27T08:51:14.020Z,63.4109
2023-04-27T08:52:17.910Z,64.0255
2023-04-27T08:53:21.817Z,63.7412
2023-04-27T08:54:25.731Z,59.8539
2023-04-27T08:55:29.654Z,57.4275
2023-04-27T08:56:33.581Z,60.0901
2023-04-27T08:57:37.484Z,62.8892
2023-04-27T08:58:41.371Z,63.7892
2023-04-27T08:59:45.546Z,63.6630
2023-04-27T09:00:50.753Z,60.0939
2023-04-27T09:01:51.096Z,56.1573
2023-04-27T09:02:55.268Z,58.1450
2023-04-27T09:03:59.792Z,61.6589
2023-04-27T09:05:04.162Z,63.4967
2023-04-27T09:06:08.246Z,63.7419
2023-04-27T09:07:08.397Z,61.6520
2023-04-27T09:08:12.316Z,57.0614
2023-04-27T09:09:16.301Z,57.8479
2023-04-27T09:10:20.260Z,61.2091
2023-04-27T09:11:24.135Z,63.1756
2023-04-27T09:12:28.043Z,63.5017
2023-04-27T09:13:31.926Z,62.1783
2023-04-27T09:14:35.829Z,57.5499
2023-04-27T09:15:39.729Z,57.8538
2023-04-27T09:16:43.960Z,61.1345
2023-04-27T09:17:47.930Z,63.1162
2023-04-27T09:18:51.817Z,63.4172
2023-04-27T09:19:55.725Z,62.4738
2023-04-27T09:20:59.642Z,58.0561
2023-04-27T09:22:03.558Z,57.9123
2023-04-27T09:23:07.769Z,61.1176
2023-04-27T09:24:11.634Z,63.1577
2023-04-27T09:25:15.527Z,63.4843
2023-04-27T09:26:19.416Z,62.6842
2023-04-27T09:27:23.446Z,58.4647
2023-04-27T09:28:27.305Z,57.9683
2023-04-27T09:29:31.292Z,60.9770
2023-04-27T09:30:35.186Z,62.9478
2023-04-27T09:31:39.208Z,63.2037
2023-04-27T09:32:43.143Z,62.5432
2023-04-27T09:33:47.042Z,57.9754
2023-04-27T09:34:51.027Z,55.2694
2023-04-27T09:35:54.885Z,58.0570
2023-04-27T09:36:58.776Z,61.4618
2023-04-27T09:38:02.681Z,62.8763
2023-04-27T09:39:06.571Z,62.9252
2023-04-27T09:40:10.443Z,60.1597
2023-04-27T09:41:14.346Z,58.7107
2023-04-27T09:42:18.265Z,61.2815
2023-04-27T09:43:22.153Z,62.8520
2023-04-27T09:44:26.045Z,63.0098
2023-04-27T09:45:29.960Z,62.6191
2023-04-27T09:46:33.837Z,58.8603
2023-04-27T09:47:37.747Z,54.4014
2023-04-27T09:48:41.614Z,56.0237
2023-04-27T09:49:45.533Z,59.7640
2023-04-27T09:50:49.426Z,62.1579
2023-04-27T09:51:53.580Z,62.7131
2023-04-27T09:52:57.503Z,61.1795
2023-04-27T09:54:01.459Z,57.3877
2023-04-27T09:55:05.373Z,58.7807
2023-04-27T09:56:09.295Z,61.6734
2023-04-27T09:57:13.192Z,62.7079
2023-04-27T09:58:17.090Z,62.7096
2023-04-27T09:59:20.998Z,61.0770
2023-04-27T10:00:24.908Z,55.6585
2023-04-27T10:01:28.827Z,54.5284
2023-04-27T10:02:35.041Z,57.7499
2023-04-27T10:03:37.344Z,61.0970
2023-04-27T10:04:41.379Z,62.1647
2023-04-27T10:05:45.332Z,61.9942
2023-04-27T10:06:49.453Z,57.8149
2023-04-27T10:07:53.381Z,54.1393
2023-04-27T10:08:57.529Z,56.3449
2023-04-27T10:10:01.444Z,60.0112
2023-04-27T10:11:05.319Z,62.0365
2023-04-27T10:12:09.229Z,62.3995
2023-04-27T10:13:13.116Z,60.1934
2023-04-27T10:14:17.038Z,55.9940
2023-04-27T10:15:20.953Z,57.3961
2023-04-27T10:16:24.878Z,60.7142
2023-04-27T10:17:30.008Z,62.3173
2023-04-27T10:18:33.906Z,62.5141
2023-04-27T10:19:37.799Z,60.9216
2023-04-27T10:20:41.719Z,56.6261
2023-04-27T10:21:45.602Z,57.5514
2023-04-27T10:22:49.509Z,60.7728
2023-04-27T10:23:53.389Z,62.2988
2023-04-27T10:24:57.285Z,62.4648
2023-04-27T10:26:01.197Z,61.2698
2023-04-27T10:27:05.094Z,56.7296
2023-04-27T10:28:09.054Z,56.8287
2023-04-27T10:29:13.195Z,60.1058
2023-04-27T10:30:17.282Z,62.0356
2023-04-27T10:31:21.182Z,62.3793
2023-04-27T10:32:25.183Z,61.6119
2023-04-27T10:33:29.053Z,58.0007
2023-04-27T10:34:32.964Z,58.5874
2023-04-27T10:35:36.863Z,61.3305
2023-04-27T10:36:41.165Z,62.2918
2023-04-27T10:37:45.088Z,62.2735
2023-04-27T10:38:48.993Z,61.2932
2023-04-27T10:39:54.780Z,56.9740
2023-04-27T10:40:53.513Z,56.5439
2023-04-27T10:41:57.418Z,59.6472
2023-04-27T10:43:01.317Z,61.7105
2023-04-27T10:44:05.230Z,62.0572
2023-04-27T10:45:09.143Z,61.5974
2023-04-27T10:46:13.071Z,57.7159
2023-04-27T10:47:16.969Z,56.2251
2023-04-27T10:48:20.848Z,59.1189
2023-04-27T10:49:24.769Z,61.3829
2023-04-27T10:50:28.669Z,61.8022
2023-04-27T10:51:32.568Z,61.5144
2023-04-27T10:52:36.488Z,57.9967
2023-04-27T10:53:40.393Z,55.3329
2023-04-27T10:54:44.300Z,57.9306
2023-04-27T10:55:48.219Z,60.8410
2023-04-27T10:56:52.142Z,61.7292
2023-04-27T10:57:56.082Z,61.6839
2023-04-27T10:58:59.930Z,58.9916
2023-04-27T11:00:03.819Z,55.8683
2023-04-27T11:01:07.793Z,58.1009
2023-04-27T11:02:11.719Z,60.8676
2023-04-27T11:03:15.682Z,61.7170
2023-04-27T11:04:19.703Z,61.6623
2023-04-27T11:05:23.564Z,59.4423
2023-04-27T11:06:27.477Z,55.9261
2023-04-27T11:07:31.454Z,57.7658
2023-04-27T11:08:35.316Z,60.6158
2023-04-27T11:09:39.241Z,61.5963
2023-04-27T11:10:43.156Z,61.5898
2023-04-27T11:11:47.055Z,59.8345
2023-04-27T11:12:50.973Z,55.2074
2023-04-27T11:13:55.164Z,55.6615
2023-04-27T11:14:59.013Z,59.0122
2023-04-27T11:16:03.227Z,60.9921
2023-04-27T11:17:07.140Z,61.3238
2023-04-27T11:18:11.041Z,60.5437
2023-04-27T11:19:15.186Z,55.9644
2023-04-27T11:20:19.263Z,54.8162
2023-04-27T11:21:23.181Z,58.0805
2023-04-27T11:22:27.105Z,60.7783
2023-04-27T11:23:30.994Z,61.4812
2023-04-27T11:24:34.882Z,61.2526
2023-04-27T11:25:38.776Z,57.9514
2023-04-27T11:26:42.934Z,57.0751
2023-04-27T11:27:46.830Z,59.8927
2023-04-27T11:28:51.024Z,61.3200
2023-04-27T11:29:54.917Z,61.4332
2023-04-27T11:30:58.836Z,61.0096
2023-04-27T11:32:02.800Z,57.3223
2023-04-27T11:33:06.696Z,54.9319
2023-04-27T11:34:10.557Z,57.6590
2023-04-27T11:35:14.444Z,60.4543
2023-04-27T11:36:18.340Z,61.1773
2023-04-27T11:37:22.229Z,61.0797
2023-04-27T11:38:26.181Z,58.2798
2023-04-27T11:39:30.091Z,53.7717
2023-04-27T11:40:33.985Z,55.0231
2023-04-27T11:41:38.089Z,58.7399
2023-04-27T11:42:41.999Z,60.7999
2023-04-27T11:43:46.214Z,61.1764
2023-04-27T11:44:50.128Z,60.0188
2023-04-27T11:45:54.017Z,55.5024
2023-04-27T11:46:58.032Z,55.5992
2023-04-27T11:48:01.946Z,58.8703
2023-04-27T11:49:05.893Z,60.7602
2023-04-27T11:50:09.752Z,61.0184
2023-04-27T11:51:13.658Z,60.3954
2023-04-27T11:52:17.555Z,55.9261
2023-04-27T11:53:21.453Z,53.6001
2023-04-27T11:54:25.366Z,56.4477
2023-04-27T11:55:29.279Z,59.7927
2023-04-27T11:56:33.189Z,60.9187
2023-04-27T11:57:37.076Z,60.9262
2023-04-27T11:58:40.999Z,58.2036
2023-04-27T11:59:44.887Z,54.4568
2023-04-27T12:00:48.776Z,56.3334
2023-04-27T12:01:52.684Z,59.6699
2023-04-27T12:02:56.709Z,60.9642
2023-04-27T12:04:02.496Z,61.0542
2023-04-27T12:05:01.665Z,59.5183
2023-04-27T12:07:07.113Z,56.3783
2023-04-27T12:08:11.021Z,59.4234
2023-04-27T12:09:15.086Z,60.8386
2023-04-27T12:10:18.986Z,60.9257
2023-04-27T12:11:22.879Z,60.0363
2023-04-27T12:12:26.789Z,55.6268
2023-04-27T12:13:30.725Z,54.9937
2023-04-27T12:14:34.619Z,58.2942
2023-04-27T12:15:38.540Z,60.5822
2023-04-27T12:16:42.431Z,61.0179
2023-04-27T12:17:46.401Z,60.6768
2023-04-27T12:18:50.359Z,56.9239
2023-04-27T12:19:55.221Z,55.0179
2023-04-27T12:21:02.977Z,58.0123
2023-04-27T12:22:02.068Z,60.5177
2023-04-27T12:23:05.967Z,60.9959
2023-04-27T12:24:09.867Z,60.8097
2023-04-27T12:25:13.751Z,57.8201
2023-04-27T12:26:17.634Z,54.4624
2023-04-27T12:27:21.561Z,56.5889
2023-04-27T12:28:25.438Z,59.6771
2023-04-27T12:29:29.332Z,60.6945
2023-04-27T12:30:33.248Z,60.6972
2023-04-27T12:31:37.245Z,58.8226
2023-04-27T12:32:41.206Z,54.1210
2023-04-27T12:33:45.090Z,54.6763
2023-04-27T12:34:48.997Z,58.2104
2023-04-27T12:35:52.909Z,60.2927
2023-04-27T12:36:56.825Z,60.6307
2023-04-27T12:38:00.734Z,59.9487
2023-04-27T12:39:04.624Z,55.4558
2023-04-27T12:40:08.530Z,53.9285
2023-04-27T12:41:12.472Z,57.0576
2023-04-27T12:42:16.388Z,59.9101
2023-04-27T12:43:20.310Z,60.6439
2023-04-27T12:44:24.217Z,60.4918
2023-04-27T12:45:28.126Z,57.2849
2023-04-27T12:46:32.080Z,54.1096
2023-04-27T12:48:37.471Z,59.6824
2023-04-27T12:49:41.355Z,60.6658
2023-04-27T12:50:45.266Z,60.7044
2023-04-27T12:51:49.184Z,58.8027
2023-04-27T12:52:53.109Z,54.8648
2023-04-27T12:53:58.719Z,56.2246
2023-04-27T12:54:59.356Z,59.3546
2023-04-27T12:56:03.238Z,60.3977
2023-04-27T12:57:07.116Z,60.4514
2023-04-27T12:58:11.015Z,59.3424
2023-04-27T12:59:14.903Z,54.2993
2023-04-27T13:00:18.811Z,52.5036
2023-04-27T13:01:23.049Z,55.6204
2023-04-27T13:02:27.017Z,59.0992
2023-04-27T13:03:31.103Z,60.3279
2023-04-27T13:04:35.283Z,60.3558
2023-04-27T13:05:39.243Z,57.5392
2023-04-27T13:06:43.140Z,56.1766
2023-04-27T13:07:47.011Z,58.9870
2023-04-27T13:08:50.947Z,60.5915
2023-04-27T13:09:54.822Z,60.7381
2023-04-27T13:10:58.717Z,60.4304
2023-04-27T13:12:02.594Z,57.3090
2023-04-27T13:13:06.470Z,54.2440
2023-04-27T13:14:10.374Z,56.6697
2023-04-27T13:15:14.300Z,59.7117
2023-04-27T13:16:18.446Z,60.5830
2023-04-27T13:17:22.412Z,60.5275
2023-04-27T13:18:26.326Z,58.4990
2023-04-27T13:19:30.218Z,55.0391
2023-04-27T13:20:34.128Z,56.9564
2023-04-27T13:21:38.078Z,59.7626
2023-04-27T13:22:41.959Z,60.5432
2023-04-27T13:23:45.867Z,60.4769
2023-04-27T13:24:49.770Z,58.9296
2023-04-27T13:25:53.884Z,54.8426
2023-04-27T13:26:57.756Z,55.8586
2023-04-27T13:28:01.673Z,58.9939
2023-04-27T13:29:05.781Z,60.2973
2023-04-27T13:30:09.787Z,60.3542
2023-04-27T13:31:13.841Z,59.4396
2023-04-27T13:32:17.720Z,55.9062
2023-04-27T13:33:23.064Z,56.9669
2023-04-27T13:34:22.331Z,59.6695
2023-04-27T13:35:26.257Z,60.4248
2023-04-27T13:36:30.186Z,60.3868
2023-04-27T13:37:34.063Z,59.5496
2023-04-27T13:38:37.960Z,55.1278
2023-04-27T13:39:41.885Z,53.2931
2023-04-27T13:40:45.806Z,56.3049
2023-04-27T13:41:49.711Z,59.3679
2023-04-27T13:42:53.609Z,60.1879
2023-04-27T13:43:57.771Z,60.0844
2023-04-27T13:45:01.670Z,57.2316
2023-04-27T13:46:05.556Z,54.9328
2023-04-27T13:47:09.522Z,57.5029
2023-04-27T13:48:13.467Z,59.7977
2023-04-27T13:49:17.370Z,60.2287
2023-04-27T13:50:21.245Z,60.0911
2023-04-27T13:51:25.162Z,57.6255
2023-04-27T13:52:29.044Z,53.8606
2023-04-27T13:53:32.938Z,55.5963
2023-04-27T13:54:36.843Z,58.8479
2023-04-27T13:55:40.777Z,60.0759
2023-04-27T13:56:44.833Z,60.1362
2023-04-27T13:57:48.747Z,58.8055
2023-04-27T13:58:52.670Z,54.7872
2023-04-27T13:59:56.572Z,55.7388
2023-04-27T14:01:00.510Z,58.8843
2023-04-27T14:02:04.375Z,60.0749
2023-04-27T14:03:08.371Z,60.1386
2023-04-27T14:04:12.602Z,59.2654
2023-04-27T14:05:16.613Z,55.3040
2023-04-27T14:06:20.502Z,55.6234
2023-04-27T14:07:24.403Z,58.7573
2023-04-27T14:08:28.310Z,60.0978
2023-04-27T14:09:32.215Z,60.1865
2023-04-27T14:10:36.132Z,59.5788
2023-04-27T14:11:48.956Z,56.1991
2023-04-27T14:12:44.579Z,56.9160
2023-04-27T14:13:48.466Z,59.4602
2023-04-27T14:14:52.381Z,60.1644
2023-04-27T14:15:56.271Z,60.0629
2023-04-27T14:17:00.400Z,59.3414
2023-04-27T14:18:04.297Z,55.1571
2023-04-27T14:19:08.177Z,53.9364
2023-04-27T14:20:12.089Z,57.0981
2023-04-27T14:21:16.007Z,59.4735
2023-04-27T14:22:19.895Z,59.9088
2023-04-27T14:23:24.082Z,59.6963
2023-04-27T14:24:28.006Z,56.6037
2023-04-27T14:25:31.913Z,54.4369
2023-04-27T14:26:36.005Z,57.0717
2023-04-27T14:27:39.909Z,59.3610
2023-04-27T14:28:43.822Z,59.7355
2023-04-27T14:29:47.777Z,59.5828
2023-04-27T14:30:51.635Z,57.0306
2023-04-27T14:31:55.576Z,52.6067
2023-04-27T14:32:59.520Z,53.7173
2023-04-27T14:34:03.474Z,57.4039
2023-04-27T14:35:07.364Z,59.4822
2023-04-27T14:36:11.261Z,59.8094
2023-04-27T14:37:15.158Z,59.1478
2023-04-27T14:38:19.290Z,58.3026
2023-04-27T14:39:23.183Z,59.6873
2023-04-27T14:40:27.090Z,59.9294
2023-04-27T14:41:31.024Z,59.7191
2023-04-27T14:42:34.961Z,59.3938
2023-04-27T14:43:38.870Z,57.1756
2023-04-27T14:44:42.802Z,52.2160
2023-04-27T14:45:52.833Z,51.9783
2023-04-27T14:46:51.285Z,55.7878
2023-04-27T14:47:55.303Z,58.7076
2023-04-27T14:48:59.249Z,59.5118
2023-04-27T14:50:03.133Z,59.2682
2023-04-27T14:51:07.042Z,55.7632
2023-04-27T14:52:10.924Z,54.5209
2023-04-27T14:53:14.868Z,57.3644
2023-04-27T14:54:18.730Z,59.2688
2023-04-27T14:55:22.676Z,59.5187
2023-04-27T14:56:26.574Z,59.2906
2023-04-27T14:57:30.458Z,56.1113
2023-04-27T14:58:34.385Z,52.5768
2023-04-27T14:59:38.253Z,54.6307
2023-04-27T15:00:42.152Z,57.9772
2023-04-27T15:01:46.092Z,59.3499
2023-04-27T15:02:50.048Z,59.4603
2023-04-27T15:03:54.194Z,57.9506
2023-04-27T15:04:58.278Z,53.9744
2023-04-27T15:06:02.183Z,55.0201
2023-04-27T15:07:06.089Z,58.1083
2023-04-27T15:08:10.250Z,59.2672
2023-04-27T15:09:14.359Z,59.3154
2023-04-27T15:10:18.376Z,58.3865
2023-04-27T15:11:22.257Z,53.6779
2023-04-27T15:12:26.158Z,51.3097
2023-04-27T15:13:30.053Z,54.1653
2023-04-27T15:14:33.967Z,57.7045
2023-04-27T15:15:37.950Z,59.1605
2023-04-27T15:16:41.890Z,59.3136
2023-04-27T15:17:45.776Z,57.8484
2023-04-27T15:18:49.719Z,58.2812
2023-04-27T15:19:53.636Z,59.5151
2023-04-27T15:20:57.816Z,59.4228
2023-04-27T15:22:01.716Z,54.3510
2023-04-27T15:23:05.753Z,51.2149
2023-04-27T15:24:09.673Z,48.7680
2023-04-27T15:25:13.604Z,46.4612
2023-04-27T15:26:17.509Z,46.5552
2023-04-27T15:27:21.408Z,45.1547
2023-04-27T15:28:25.333Z,45.2234
2023-04-27T15:29:29.216Z,48.6947
2023-04-27T15:30:33.110Z,52.6602
2023-04-27T15:31:37.032Z,55.7841
2023-04-27T15:32:40.941Z,58.0528
2023-04-27T15:33:44.813Z,57.5854
2023-04-27T15:34:48.702Z,53.3342
2023-04-27T15:35:52.598Z,53.5933
2023-04-27T15:36:56.468Z,55.2903
2023-04-27T15:38:00.593Z,55.3813
2023-04-27T15:39:04.504Z,53.7777
2023-04-27T15:40:08.458Z,52.1113
2023-04-27T15:41:12.345Z,49.5913
2023-04-27T15:42:16.249Z,47.8274
2023-04-27T15:43:20.136Z,50.1882
2023-04-27T15:44:24.012Z,53.1912
2023-04-27T15:45:27.930Z,53.7308
2023-04-27T15:46:31.877Z,52.5311
2023-04-27T15:47:36.199Z,51.2913
2023-04-27T15:48:40.098Z,49.2784
2023-04-27T15:49:56.169Z,49.9467
2023-04-27T15:50:48.466Z,52.2981
2023-04-27T15:51:52.370Z,52.1152
2023-04-27T15:52:56.310Z,51.3270
2023-04-27T15:54:00.174Z,50.5779
2023-04-27T15:55:04.075Z,49.3351
2023-04-27T15:56:07.960Z,48.1668
2023-04-27T15:57:11.854Z,50.6877
2023-04-27T15:58:15.747Z,52.4506
2023-04-27T15:59:19.651Z,51.8853
2023-04-27T16:00:21.346Z,51.0777
2023-04-27T16:01:25.341Z,50.3312
2023-04-27T16:02:29.393Z,48.5542
2023-04-27T16:03:33.452Z,49.1018
2023-04-27T16:04:37.374Z,51.8152
2023-04-27T16:05:41.365Z,52.1091
2023-04-27T16:06:45.254Z,51.2873
2023-04-27T16:07:49.207Z,50.5545
2023-04-27T16:08:53.087Z,49.4432
2023-04-27T16:09:57.057Z,47.8739
2023-04-27T16:11:00.999Z,50.0827
2023-04-27T16:12:05.109Z,52.3917
2023-04-27T16:13:08.995Z,52.1732
2023-04-27T16:14:13.140Z,51.2461
2023-04-27T16:15:17.346Z,50.4232
2023-04-27T16:16:21.289Z,48.7329
2023-04-27T16:17:25.219Z,48.8817
2023-04-27T16:18:29.098Z,51.5476
2023-04-27T16:19:32.965Z,52.0339
2023-04-27T16:20:36.891Z,51.2548
2023-04-27T16:21:40.781Z,50.4726
2023-04-27T16:22:44.689Z,49.4637
2023-04-27T16:23:48.646Z,47.4781
2023-04-27T16:24:52.577Z,48.8444
2023-04-27T16:25:56.457Z,51.8157
2023-04-27T16:27:00.363Z,52.4498
2023-04-27T16:28:04.281Z,51.4423
2023-04-27T16:29:08.347Z,50.5104
2023-04-27T16:30:12.263Z,49.0798
2023-04-27T16:31:16.180Z,47.6650
2023-04-27T16:32:20.425Z,50.1146
2023-04-27T16:33:24.429Z,52.4457
2023-04-27T16:34:28.330Z,52.0883
2023-04-27T16:35:32.230Z,51.0740
2023-04-27T16:36:36.134Z,50.2082
2023-04-27T16:37:40.056Z,48.4924
2023-04-27T16:38:43.903Z,49.1877
2023-04-27T16:39:47.849Z,51.5830
2023-04-27T16:40:51.815Z,51.5948
2023-04-27T16:41:55.723Z,50.7956
2023-04-27T16:42:59.625Z,50.0746
2023-04-27T16:44:03.520Z,48.9939
2023-04-27T16:45:09.929Z,48.2470
2023-04-27T16:46:09.321Z,50.7205
2023-04-27T16:47:13.187Z,51.4044
2023-04-27T16:48:17.089Z,50.7137
2023-04-27T16:49:20.979Z,49.9702
2023-04-27T16:50:24.889Z,49.2916
2023-04-27T16:51:28.755Z,47.4097
2023-04-27T16:52:32.664Z,47.1264
2023-04-27T16:53:36.536Z,50.2490
2023-04-27T16:54:40.454Z,52.2341
2023-04-27T16:55:44.337Z,51.5587
2023-04-27T16:56:48.234Z,50.5102
2023-04-27T16:57:52.165Z,49.4700
2023-04-27T16:58:56.078Z,47.9660
2023-04-27T16:59:59.985Z,49.8493
2023-04-27T17:01:03.885Z,51.0518
2023-04-27T17:02:23.051Z,50.4786
2023-04-27T17:03:12.566Z,49.7068
2023-04-27T17:04:16.581Z,49.1299
2023-04-27T17:05:20.906Z,47.6378
2023-04-27T17:06:24.870Z,47.7866
2023-04-27T17:07:28.763Z,50.5877
2023-04-27T17:08:32.769Z,51.1703
2023-04-27T17:09:36.660Z,50.4294
2023-04-27T17:10:40.580Z,49.6805
2023-04-27T17:11:44.463Z,48.8121
2023-04-27T17:12:48.354Z,48.1126
2023-04-27T17:13:52.224Z,50.1971
2023-04-27T17:14:56.205Z,50.4893
2023-04-27T17:16:00.148Z,49.9151
2023-04-27T17:17:04.062Z,49.3106
2023-04-27T17:18:07.986Z,48.7184
2023-04-27T17:19:12.127Z,47.3902
2023-04-27T17:20:16.148Z,49.1057
2023-04-27T17:21:20.046Z,50.5061
2023-04-27T17:22:23.983Z,50.0651
2023-04-27T17:23:27.840Z,49.3825
2023-04-27T17:24:31.720Z,48.8307
2023-04-27T17:25:35.620Z,47.5583
2023-04-27T17:26:39.532Z,47.0117
2023-04-27T17:27:43.676Z,49.8024
2023-04-27T17:28:47.574Z,50.7982
2023-04-27T17:29:51.757Z,50.1199
2023-04-27T17:30:55.783Z,49.3337
2023-04-27T17:31:59.678Z,48.6134
2023-04-27T17:33:03.650Z,47.7375
2023-04-27T17:34:07.539Z,49.6335
2023-04-27T17:35:11.689Z,49.9961
2023-04-27T17:36:15.556Z,49.4422
2023-04-27T17:37:19.462Z,48.9071
2023-04-27T17:38:23.647Z,48.4559
2023-04-27T17:39:27.537Z,46.9610
2023-04-27T17:40:31.432Z,47.1603
2023-04-27T17:41:37.118Z,50.0711
2023-04-27T17:42:35.872Z,50.8251
2023-04-27T17:43:39.772Z,50.0971
2023-04-27T17:44:43.617Z,49.3118
2023-04-27T17:45:47.534Z,48.5222
2023-04-27T17:46:51.469Z,47.3220
2023-04-27T17:47:55.451Z,49.4199
2023-04-27T17:48:59.319Z,50.4573
2023-04-27T17:50:03.233Z,49.9598
2023-04-27T17:51:07.112Z,49.2879
2023-04-27T17:52:11.032Z,48.7670
2023-04-27T17:53:14.934Z,47.4331
2023-04-27T17:54:18.815Z,48.5035
2023-04-27T17:55:22.728Z,50.4598
2023-04-27T17:56:26.629Z,50.2267
2023-04-27T17:57:30.612Z,49.5659
2023-04-27T17:58:34.493Z,49.0229
2023-04-27T17:59:38.374Z,48.0024
2023-04-27T18:00:42.322Z,47.5709
2023-04-27T18:01:46.268Z,50.0294
2023-04-27T18:02:50.288Z,50.4874
2023-04-27T18:03:54.355Z,49.8839
2023-04-27T18:04:58.274Z,49.2130
2023-04-27T18:06:02.358Z,48.5917
2023-04-27T18:07:06.245Z,47.0076
2023-04-27T18:08:10.285Z,48.4806
2023-04-27T18:09:14.379Z,50.7518
2023-04-27T18:10:18.457Z,50.5268
2023-04-27T18:11:22.344Z,49.7814
2023-04-27T18:12:26.213Z,49.1530
2023-04-27T18:13:30.171Z,47.9557
2023-04-27T18:14:34.056Z,48.0798
2023-04-27T18:15:37.962Z,50.2583
2023-04-27T18:16:41.877Z,50.2858
2023-04-27T18:17:45.758Z,49.6166
2023-04-27T18:18:49.686Z,49.0259
2023-04-27T18:20:06.937Z,48.3020
2023-04-27T18:20:58.042Z,46.7485
2023-04-27T18:22:01.946Z,48.6163
2023-04-27T18:23:05.824Z,50.9083
2023-04-27T18:24:09.783Z,50.6350
2023-04-27T18:25:13.662Z,49.8227
2023-04-27T18:26:17.622Z,49.1781
2023-04-27T18:27:21.508Z,47.8236
2023-04-27T18:28:25.416Z,48.0453
2023-04-27T18:29:29.305Z,50.4145
2023-04-27T18:30:33.204Z,50.5349
2023-04-27T18:31:37.110Z,49.8803
2023-04-27T18:32:41.016Z,49.2528
2023-04-27T18:33:45.136Z,48.4077
2023-04-27T18:34:49.023Z,47.5096
2023-04-27T18:35:52.948Z,49.7693
2023-04-27T18:36:56.836Z,50.4818
2023-04-27T18:38:00.754Z,49.9039